METAR stanice u blizini

 

LYBE - Beograd / Surčin, Srbija
Ažurirano: 24/01/2021 03:30
Vedro
Vedro
 Pravac vetra J
Vetar: J 19 km/h
Temperatura: 9°C
Osećaj hladnoće: 6°C
Tačka rose: 2°C
Vlažnost: 62%
Pritisak: 999 hPa
Pregled: Vedro
Vidljivost: greater than 10 km
2021/01/24 02:30 LYBE 240230Z 18010KT CAVOK 09/02 Q0999 NOSIG
LYBT - Beograd / Batajnica, Srbija
Ažurirano: 24/01/2021 03:30
Vedro
Vedro
 Pravac vetra JJI
Vetar: JJI 13 km/h
Temperatura: 6°C
Osećaj hladnoće: 3°C
Tačka rose: 2°C
Vlažnost: 76%
Pritisak: 999 hPa
Pregled: Vedro
Vidljivost: greater than 10 km
2021/01/24 02:30 LYBT 240230Z 15007KT CAVOK 06/02 Q0999 NOSIG
LYVR - Vršac, Srbija
Ažurirano: 24/01/2021 03:30
Vedro
Vedro
 Pravac vetra JJI
Vetar: JJI 35 km/h
Temperatura: 9°C
Osećaj hladnoće: 5°C
Tačka rose: 3°C
Vlažnost: 66%
Pritisak: 999 hPa
Pregled: Vedro
Vidljivost: greater than 10 km
2021/01/24 02:30 LYVR 240230Z AUTO 15019KT CAVOK 09/03 Q0999
 
LYKV - Lađevci, Srbija
Ažurirano: 24/01/2021 03:00
Partly Cloudy
Partly Cloudy
 Pravac vetra JI
Vetar: JI 9 km/h
Temperatura: 5°C
Osećaj hladnoće: 3°C
Tačka rose: 2°C
Vlažnost: 81%
Pritisak: 1001 hPa
Oblaci: Partly Cloudy
Vidljivost: 10 km
Cloud details: Partly Cloudy 1219 m
2021/01/24 02:00 LYKV 240200Z 13005KT 9999 SCT040 05/02 Q1001 NOSIG
LYNI - Niš, Srbija
Ažurirano: 24/01/2021 03:30
Partly Cloudy
Partly Cloudy
 Pravac vetra JJI
Vetar: JJI 2 km/h
Temperatura: 9°C
Tačka rose: 3°C
Vlažnost: 66%
Pritisak: 1003 hPa
Oblaci: Partly Cloudy
Vidljivost: 10 km
Cloud details: Partly Cloudy 1524 m
2021/01/24 02:30 LYNI 240230Z 16001KT 9999 SCT050 09/03 Q1003 NOSIG
BKPR - Priština, Srbija
Ažurirano: 24/01/2021 04:00
Partly Cloudy
Partly Cloudy
 Pravac vetra JI
Vetar: JI 9 km/h
Temperatura: 2°C
Osećaj hladnoće: -1°C
Tačka rose: -1°C
Vlažnost: 81%
Pritisak: 1003 hPa
Oblaci: Partly Cloudy
Vidljivost: 10 km
Cloud details: Partly Cloudy 2743 m
2021/01/24 03:00 BKPR 240300Z 14005KT 9999 SCT090 02/M01 Q1003 NOSIG RMK 17290095
 
LHPP - Pecs / Pogany, Hungary
Ažurirano: 23/01/2021 18:45
NOT Current
Vedro
Vedro
 Pravac vetra ISI
Vetar: ISI 4 km/h
Temperatura: 7°C
Tačka rose: 6°C
Vlažnost: 93%
Pritisak: 998 hPa
Pregled: Vedro
Vidljivost: greater than 10 km
2021/01/23 17:45 LHPP 231745Z 06002KT CAVOK 07/06 Q0998
LHUD - Szeged, Hungary
Ažurirano: 04/07/2019 01:45
NOT Current
Vedro
Vedro
 Pravac vetra S
Vetar: S 7 km/h
Temperatura: 18°C
Tačka rose: 13°C
Vlažnost: 73%
Pritisak: 1019 hPa
Pregled: Vedro
Vidljivost: greater than 10 km
2019/07/03 23:45 LHUD 032345Z 35004KT CAVOK 18/13 Q1019
LRTR - Timisoara, Romania
Ažurirano: 24/01/2021 03:30
Vedro
Vedro
 Pravac vetra J
Vetar: J 17 km/h
Temperatura: 8°C
Osećaj hladnoće: 5°C
Tačka rose: 7°C
Vlažnost: 93%
Pritisak: 999 hPa
Pregled: Vedro
Vidljivost: greater than 10 km
2021/01/24 02:30 LRTR 240230Z 18009KT CAVOK 08/07 Q0999 R11/290095
 
LRCV - Craiova, Romania
Ažurirano: 24/01/2021 03:30
Mist, Delimično oblačno
Mist, Delimično oblačno
 Pravac vetra S
Vetar: S 7 km/h
Temperatura: 3°C
Osećaj hladnoće: 1°C
Tačka rose: 2°C
Vlažnost: 93%
Pritisak: 1001 hPa
Pregled: Mist
Oblaci: Partly Cloudy
Vidljivost: 3 km
2021/01/24 02:30 LRCV 240230Z 36004KT 320V020 2500 BR NSC 03/02 Q1001
LBSF - Sofia, Bulgaria
Ažurirano: 24/01/2021 03:30
Partly Cloudy
Partly Cloudy
 Pravac vetra ISI
Vetar: ISI 9 km/h
Temperatura: 4°C
Osećaj hladnoće: 2°C
Tačka rose: 2°C
Vlažnost: 87%
Pritisak: 1003 hPa
Oblaci: Partly Cloudy
Vidljivost: 10 km
Cloud details: Partly Cloudy 1585 m
2021/01/24 02:30 LBSF 240230Z 07005KT 9999 SCT052 04/02 Q1003 NOSIG
LWSK - Skoplje, Makedonija
Ažurirano: 24/01/2021 03:30
Magla, Oblačno
Magla, Oblačno
 Pravac vetra calm
Vetar: Tišina
Temperatura: 0°C
Tačka rose: 0°C
Vlažnost: 100%
Pritisak: 1005 hPa
Pregled: Magla
Oblaci: Oblačno
Vidljivost: 0 km
Cloud details: Oblačno 61 m
2021/01/24 02:30 LWSK 240230Z 00000KT 0100 R34/0250V0350N FG OVC002 00/M00 Q1005 NOSIG
 
LYPG - Podgorica, Crna Gora
Ažurirano: 24/01/2021 03:30
Slaba kiša, Pretežno oblačno
Slaba kiša, Pretežno oblačno
 Pravac vetra JJI
Vetar: JJI 7 km/h
Temperatura: 8°C
Osećaj hladnoće: 7°C
Tačka rose: 7°C
Vlažnost: 93%
Pritisak: 1006 hPa
Pregled: Light Rain
Oblaci: Mostly Cloudy
Vidljivost: 10 km
Cloud details: Few Clouds 792 m
Mostly Cloudy 1006 m
Mostly Cloudy 2134 m
2021/01/24 02:30 LYPG 240230Z 16004KT 110V260 9999 -RA FEW026 BKN033 BKN070 08/07 Q1006 RERA NOSIG
LQSA - Sarajevo, Bosna i Hercegovina
Ažurirano: 24/01/2021 03:00
Few Clouds
Few Clouds
 Pravac vetra SZ
Vetar: SZ 6 km/h
Temperatura: 2°C
Tačka rose: 2°C
Vlažnost: 100%
Pritisak: 999 hPa
Oblaci: Few Clouds
Vidljivost: 10 km
Cloud details: Few Clouds 1524 m
2021/01/24 02:00 LQSA 240200Z 32003KT 9999 FEW050 02/02 Q0999
LDOS - Osijek, Hrvatksa
Ažurirano: 24/01/2021 03:30
Vedro
Vedro
 Pravac vetra J
Vetar: J 11 km/h
Temperatura: 4°C
Osećaj hladnoće: 1°C
Tačka rose: 2°C
Vlažnost: 87%
Pritisak: 997 hPa
Pregled: Vedro
Vidljivost: greater than 10 km
2021/01/24 02:30 LDOS 240230Z 19006KT CAVOK 04/02 Q0997